sensor_id;sensor_type;location;lat;lon;timestamp;pressure;altitude;pressure_sealevel;temperature;humidity
49297;BME280;35163;48.878;18.040;2023-03-21T00:00:41;98392.03;;;12.08;64.69
49297;BME280;35163;48.878;18.040;2023-03-21T00:03:08;98394.06;;;11.99;64.99
49297;BME280;35163;48.878;18.040;2023-03-21T00:05:41;98387.03;;;12.03;65.03
49297;BME280;35163;48.878;18.040;2023-03-21T00:08:08;98395.75;;;12.00;65.10
49297;BME280;35163;48.878;18.040;2023-03-21T00:10:35;98392.34;;;12.00;65.22
49297;BME280;35163;48.878;18.040;2023-03-21T00:13:13;98400.19;;;11.97;65.38
49297;BME280;35163;48.878;18.040;2023-03-21T00:15:41;98396.84;;;11.95;65.91
49297;BME280;35163;48.878;18.040;2023-03-21T00:18:40;98391.03;;;11.88;66.07
49297;BME280;35163;48.878;18.040;2023-03-21T00:21:11;98391.00;;;11.89;65.70
49297;BME280;35163;48.878;18.040;2023-03-21T00:23:59;98383.34;;;11.86;66.06
49297;BME280;35163;48.878;18.040;2023-03-21T00:26:26;98392.00;;;11.85;65.97
49297;BME280;35163;48.878;18.040;2023-03-21T00:28:52;98381.69;;;11.84;66.04
49297;BME280;35163;48.878;18.040;2023-03-21T00:31:19;98378.38;;;11.80;65.75
49297;BME280;35163;48.878;18.040;2023-03-21T00:33:46;98386.81;;;11.85;65.90
49297;BME280;35163;48.878;18.040;2023-03-21T00:36:13;98371.38;;;11.82;66.07
49297;BME280;35163;48.878;18.040;2023-03-21T00:38:41;98373.06;;;11.83;65.92
49297;BME280;35163;48.878;18.040;2023-03-21T00:41:10;98369.78;;;11.79;65.97
49297;BME280;35163;48.878;18.040;2023-03-21T00:43:56;98369.25;;;11.70;66.53
49297;BME280;35163;48.878;18.040;2023-03-21T00:46:23;98374.38;;;11.71;66.27
49297;BME280;35163;48.878;18.040;2023-03-21T00:48:55;98376.00;;;11.74;66.28
49297;BME280;35163;48.878;18.040;2023-03-21T00:51:22;98377.69;;;11.75;65.97
49297;BME280;35163;48.878;18.040;2023-03-21T00:53:56;98373.41;;;11.74;66.03
49297;BME280;35163;48.878;18.040;2023-03-21T00:56:23;98384.63;;;11.74;66.26
49297;BME280;35163;48.878;18.040;2023-03-21T00:58:50;98386.50;;;11.71;66.56
49297;BME280;35163;48.878;18.040;2023-03-21T01:01:17;98391.72;;;11.69;66.39
49297;BME280;35163;48.878;18.040;2023-03-21T01:03:47;98383.91;;;11.71;66.51
49297;BME280;35163;48.878;18.040;2023-03-21T01:06:18;98389.16;;;11.67;66.71
49297;BME280;35163;48.878;18.040;2023-03-21T01:08:46;98384.03;;;11.66;66.41
49297;BME280;35163;48.878;18.040;2023-03-21T01:11:22;98380.63;;;11.65;66.58
49297;BME280;35163;48.878;18.040;2023-03-21T01:13:49;98384.09;;;11.64;66.19
49297;BME280;35163;48.878;18.040;2023-03-21T01:16:36;98377.31;;;11.62;66.55
49297;BME280;35163;48.878;18.040;2023-03-21T01:19:07;98370.28;;;11.65;66.50
49297;BME280;35163;48.878;18.040;2023-03-21T01:21:50;98379.78;;;11.65;66.25
49297;BME280;35163;48.878;18.040;2023-03-21T01:24:16;98378.03;;;11.65;66.11
49297;BME280;35163;48.878;18.040;2023-03-21T01:26:43;98366.78;;;11.66;65.89
49297;BME280;35163;48.878;18.040;2023-03-21T01:29:09;98369.25;;;11.70;65.73
49297;BME280;35163;48.878;18.040;2023-03-21T01:31:36;98372.81;;;11.67;65.88
49297;BME280;35163;48.878;18.040;2023-03-21T01:34:03;98363.50;;;11.61;66.02
49297;BME280;35163;48.878;18.040;2023-03-21T01:36:30;98374.59;;;11.65;65.84
49297;BME280;35163;48.878;18.040;2023-03-21T01:38:57;98377.13;;;11.66;65.56
49297;BME280;35163;48.878;18.040;2023-03-21T01:44:18;98383.28;;;11.64;66.38
49297;BME280;35163;48.878;18.040;2023-03-21T01:46:47;98378.19;;;11.61;66.50
49297;BME280;35163;48.878;18.040;2023-03-21T01:49:37;98378.31;;;11.58;66.06
49297;BME280;35163;48.878;18.040;2023-03-21T01:52:10;98379.34;;;11.53;66.32
49297;BME280;35163;48.878;18.040;2023-03-21T01:54:55;98375.03;;;11.52;66.50
49297;BME280;35163;48.878;18.040;2023-03-21T01:57:33;98370.81;;;11.50;66.56
49297;BME280;35163;48.878;18.040;2023-03-21T02:00:12;98369.97;;;11.49;66.93
49297;BME280;35163;48.878;18.040;2023-03-21T02:02:43;98376.13;;;11.47;66.77
49297;BME280;35163;48.878;18.040;2023-03-21T02:05:23;98368.41;;;11.45;66.95
49297;BME280;35163;48.878;18.040;2023-03-21T02:07:51;98370.09;;;11.46;67.24
49297;BME280;35163;48.878;18.040;2023-03-21T02:10:18;98365.91;;;11.42;66.97
49297;BME280;35163;48.878;18.040;2023-03-21T02:12:46;98365.97;;;11.40;67.20
49297;BME280;35163;48.878;18.040;2023-03-21T02:15:13;98365.97;;;11.40;67.52
49297;BME280;35163;48.878;18.040;2023-03-21T02:18:06;98370.09;;;11.46;66.62
49297;BME280;35163;48.878;18.040;2023-03-21T02:28:46;98357.19;;;11.45;66.90
49297;BME280;35163;48.878;18.040;2023-03-21T02:40:22;98355.28;;;11.50;66.18
49297;BME280;35163;48.878;18.040;2023-03-21T02:45:32;98360.34;;;11.53;66.45
49297;BME280;35163;48.878;18.040;2023-03-21T02:48:02;98352.69;;;11.50;66.78
49297;BME280;35163;48.878;18.040;2023-03-21T02:50:41;98354.56;;;11.46;67.14
49297;BME280;35163;48.878;18.040;2023-03-21T02:53:11;98351.13;;;11.46;67.56
49297;BME280;35163;48.878;18.040;2023-03-21T02:55:42;98351.97;;;11.46;66.90
49297;BME280;35163;48.878;18.040;2023-03-21T02:58:12;98353.13;;;11.37;67.57
49297;BME280;35163;48.878;18.040;2023-03-21T03:00:42;98359.28;;;11.35;67.40
49297;BME280;35163;48.878;18.040;2023-03-21T03:03:10;98348.63;;;11.42;66.96
49297;BME280;35163;48.878;18.040;2023-03-21T03:05:55;98359.06;;;11.41;67.17
49297;BME280;35163;48.878;18.040;2023-03-21T03:11:37;98352.88;;;11.20;68.00
49297;BME280;35163;48.878;18.040;2023-03-21T03:17:21;98352.25;;;11.13;67.84
49297;BME280;35163;48.878;18.040;2023-03-21T03:20:23;98359.44;;;11.04;68.26
49297;BME280;35163;48.878;18.040;2023-03-21T03:23:06;98358.00;;;10.96;68.78
49297;BME280;35163;48.878;18.040;2023-03-21T03:25:44;98358.06;;;10.94;68.99
49297;BME280;35163;48.878;18.040;2023-03-21T03:31:13;98357.19;;;10.95;69.11
49297;BME280;35163;48.878;18.040;2023-03-21T03:33:45;98356.28;;;10.96;69.33
49297;BME280;35163;48.878;18.040;2023-03-21T03:36:15;98355.34;;;10.99;68.87
49297;BME280;35163;48.878;18.040;2023-03-21T03:39:01;98358.81;;;10.98;69.46
49297;BME280;35163;48.878;18.040;2023-03-21T03:41:32;98362.31;;;10.97;69.64
49297;BME280;35163;48.878;18.040;2023-03-21T03:44:22;98365.06;;;10.92;69.27
49297;BME280;35163;48.878;18.040;2023-03-21T03:46:58;98359.03;;;10.91;69.56
49297;BME280;35163;48.878;18.040;2023-03-21T03:49:31;98358.16;;;10.91;69.25
49297;BME280;35163;48.878;18.040;2023-03-21T03:54:52;98359.09;;;10.90;68.99
49297;BME280;35163;48.878;18.040;2023-03-21T03:57:19;98354.91;;;10.86;69.48
49297;BME280;35163;48.878;18.040;2023-03-21T03:59:46;98351.50;;;10.84;69.20
49297;BME280;35163;48.878;18.040;2023-03-21T04:02:13;98357.66;;;10.81;69.66
49297;BME280;35163;48.878;18.040;2023-03-21T04:04:40;98354.25;;;10.79;69.39
49297;BME280;35163;48.878;18.040;2023-03-21T04:07:07;98356.03;;;10.77;69.61
49297;BME280;35163;48.878;18.040;2023-03-21T04:09:34;98359.66;;;10.73;69.58
49297;BME280;35163;48.878;18.040;2023-03-21T04:12:11;98361.38;;;10.72;69.97
49297;BME280;35163;48.878;18.040;2023-03-21T04:14:38;98359.75;;;10.69;69.64
49297;BME280;35163;48.878;18.040;2023-03-21T04:17:12;98365.06;;;10.65;70.22
49297;BME280;35163;48.878;18.040;2023-03-21T04:19:39;98360.88;;;10.61;69.56
49297;BME280;35163;48.878;18.040;2023-03-21T04:22:06;98355.78;;;10.59;69.58
49297;BME280;35163;48.878;18.040;2023-03-21T04:24:33;98364.41;;;10.58;69.99
49297;BME280;35163;48.878;18.040;2023-03-21T04:26:59;98364.50;;;10.55;70.12
49297;BME280;35163;48.878;18.040;2023-03-21T04:29:26;98362.03;;;10.52;70.42
49297;BME280;35163;48.878;18.040;2023-03-21T04:31:55;98362.19;;;10.47;70.61
49297;BME280;35163;48.878;18.040;2023-03-21T04:34:22;98363.88;;;10.47;70.72
49297;BME280;35163;48.878;18.040;2023-03-21T04:36:49;98360.44;;;10.48;70.67
49297;BME280;35163;48.878;18.040;2023-03-21T04:39:19;98361.50;;;10.40;70.32
49297;BME280;35163;48.878;18.040;2023-03-21T04:41:46;98360.00;;;10.33;70.69
49297;BME280;35163;48.878;18.040;2023-03-21T04:44:15;98356.88;;;10.23;71.44
49297;BME280;35163;48.878;18.040;2023-03-21T04:46:42;98361.69;;;10.34;70.70
49297;BME280;35163;48.878;18.040;2023-03-21T04:49:09;98356.84;;;10.52;70.14
49297;BME280;35163;48.878;18.040;2023-03-21T04:51:36;98356.47;;;10.36;71.20
49297;BME280;35163;48.878;18.040;2023-03-21T04:54:02;98356.28;;;10.42;70.99
49297;BME280;35163;48.878;18.040;2023-03-21T04:56:31;98350.97;;;10.47;70.61
49297;BME280;35163;48.878;18.040;2023-03-21T04:59:01;98354.22;;;10.53;69.61
49297;BME280;35163;48.878;18.040;2023-03-21T05:01:28;98358.34;;;10.59;69.99
49297;BME280;35163;48.878;18.040;2023-03-21T05:03:58;98359.13;;;10.61;69.51
49297;BME280;35163;48.878;18.040;2023-03-21T05:06:26;98367.75;;;10.33;70.76
49297;BME280;35163;48.878;18.040;2023-03-21T05:08:54;98360.97;;;10.29;72.06
49297;BME280;35163;48.878;18.040;2023-03-21T05:11:28;98359.56;;;10.18;72.25
49297;BME280;35163;48.878;18.040;2023-03-21T05:13:58;98363.47;;;10.32;72.00
49297;BME280;35163;48.878;18.040;2023-03-21T05:16:28;98366.03;;;10.32;72.19
49297;BME280;35163;48.878;18.040;2023-03-21T05:18:57;98368.97;;;10.50;70.88
49297;BME280;35163;48.878;18.040;2023-03-21T05:21:28;98360.16;;;10.57;70.89
49297;BME280;35163;48.878;18.040;2023-03-21T05:23:55;98368.97;;;10.50;71.43
49297;BME280;35163;48.878;18.040;2023-03-21T05:26:23;98366.25;;;10.26;72.63
49297;BME280;35163;48.878;18.040;2023-03-21T05:28:51;98379.28;;;10.23;72.69
49297;BME280;35163;48.878;18.040;2023-03-21T05:31:18;98378.91;;;10.35;72.37
49297;BME280;35163;48.878;18.040;2023-03-21T05:33:45;98382.97;;;10.42;72.34
49297;BME280;35163;48.878;18.040;2023-03-21T05:36:13;98387.69;;;10.58;71.29
49297;BME280;35163;48.878;18.040;2023-03-21T05:38:40;98391.97;;;10.59;71.17
49297;BME280;35163;48.878;18.040;2023-03-21T05:41:16;98387.69;;;10.58;70.87
49297;BME280;35163;48.878;18.040;2023-03-21T05:43:44;98381.75;;;10.54;71.16
49297;BME280;35163;48.878;18.040;2023-03-21T05:46:11;98383.56;;;10.52;70.99
49297;BME280;35163;48.878;18.040;2023-03-21T05:48:38;98383.56;;;10.52;70.80
49297;BME280;35163;48.878;18.040;2023-03-21T05:51:04;98380.06;;;10.53;70.80
49297;BME280;35163;48.878;18.040;2023-03-21T05:53:31;98382.72;;;10.52;70.72
49297;BME280;35163;48.878;18.040;2023-03-21T05:56:01;98385.31;;;10.52;71.34
49297;BME280;35163;48.878;18.040;2023-03-21T05:58:28;98392.94;;;10.55;71.30
49297;BME280;35163;48.878;18.040;2023-03-21T06:00:55;98384.28;;;10.56;71.25
49297;BME280;35163;48.878;18.040;2023-03-21T06:03:24;98386.00;;;10.57;71.16
49297;BME280;35163;48.878;18.040;2023-03-21T06:05:50;98379.88;;;10.60;71.43
49297;BME280;35163;48.878;18.040;2023-03-21T06:08:17;98387.34;;;10.69;71.34
49297;BME280;35163;48.878;18.040;2023-03-21T06:10:44;98386.91;;;10.83;71.37
49297;BME280;35163;48.878;18.040;2023-03-21T06:13:11;98390.59;;;11.01;70.30
49297;BME280;35163;48.878;18.040;2023-03-21T06:15:37;98385.00;;;11.14;70.47
49297;BME280;35163;48.878;18.040;2023-03-21T06:18:04;98387.31;;;11.22;70.04
49297;BME280;35163;48.878;18.040;2023-03-21T06:20:31;98388.47;;;11.38;69.31
49297;BME280;35163;48.878;18.040;2023-03-21T06:22:58;98388.69;;;11.32;69.71
49297;BME280;35163;48.878;18.040;2023-03-21T06:25:24;98392.94;;;11.35;68.90
49297;BME280;35163;48.878;18.040;2023-03-21T06:27:51;98387.59;;;11.39;68.79
49297;BME280;35163;48.878;18.040;2023-03-21T06:30:18;98393.56;;;11.41;68.84
49297;BME280;35163;48.878;18.040;2023-03-21T06:32:44;98391.75;;;11.43;68.41
49297;BME280;35163;48.878;18.040;2023-03-21T06:35:11;98388.38;;;11.41;68.47
49297;BME280;35163;48.878;18.040;2023-03-21T06:37:37;98395.25;;;11.42;68.11
49297;BME280;35163;48.878;18.040;2023-03-21T06:40:05;98398.81;;;11.38;68.86
49297;BME280;35163;48.878;18.040;2023-03-21T06:42:35;98394.50;;;11.39;68.70
49297;BME280;35163;48.878;18.040;2023-03-21T06:45:01;98401.47;;;11.37;69.28
49297;BME280;35163;48.878;18.040;2023-03-21T06:47:28;98404.97;;;11.36;69.12
49297;BME280;35163;48.878;18.040;2023-03-21T06:49:55;98403.13;;;11.39;69.01
49297;BME280;35163;48.878;18.040;2023-03-21T06:52:21;98408.31;;;11.39;69.38
49297;BME280;35163;48.878;18.040;2023-03-21T06:54:48;98415.16;;;11.40;68.91
49297;BME280;35163;48.878;18.040;2023-03-21T06:57:16;98411.69;;;11.41;69.01
49297;BME280;35163;48.878;18.040;2023-03-21T06:59:43;98416.91;;;11.40;68.69
49297;BME280;35163;48.878;18.040;2023-03-21T07:02:10;98420.81;;;11.52;68.33
49297;BME280;35163;48.878;18.040;2023-03-21T07:04:37;98418.13;;;11.55;67.86
49297;BME280;35163;48.878;18.040;2023-03-21T07:07:06;98420.59;;;11.58;67.65
49297;BME280;35163;48.878;18.040;2023-03-21T07:09:33;98417.78;;;11.64;67.94
49297;BME280;35163;48.878;18.040;2023-03-21T07:11:59;98412.22;;;11.75;67.93
49297;BME280;35163;48.878;18.040;2023-03-21T07:14:26;98419.53;;;11.88;67.40
49297;BME280;35163;48.878;18.040;2023-03-21T07:16:53;98420.84;;;12.00;66.85
49297;BME280;35163;48.878;18.040;2023-03-21T07:19:19;98428.84;;;12.18;66.11
49297;BME280;35163;48.878;18.040;2023-03-21T07:21:46;98418.00;;;12.30;64.96
49297;BME280;35163;48.878;18.040;2023-03-21T07:24:13;98431.22;;;12.46;64.75
49297;BME280;35163;48.878;18.040;2023-03-21T07:26:39;98418.66;;;12.58;64.35
49297;BME280;35163;48.878;18.040;2023-03-21T07:29:06;98420.06;;;12.67;63.65
49297;BME280;35163;48.878;18.040;2023-03-21T07:31:32;98430.91;;;12.76;63.65
49297;BME280;35163;48.878;18.040;2023-03-21T07:34:00;98424.25;;;12.69;63.23
49297;BME280;35163;48.878;18.040;2023-03-21T07:36:26;98431.97;;;12.71;63.37
49297;BME280;35163;48.878;18.040;2023-03-21T07:38:56;98429.44;;;12.69;63.48
49297;BME280;35163;48.878;18.040;2023-03-21T07:41:22;98424.84;;;12.76;63.24
49297;BME280;35163;48.878;18.040;2023-03-21T07:43:49;98426.97;;;12.88;63.73
49297;BME280;35163;48.878;18.040;2023-03-21T07:48:46;98421.78;;;13.09;62.38
49297;BME280;35163;48.878;18.040;2023-03-21T07:51:12;98421.28;;;13.22;61.40
49297;BME280;35163;48.878;18.040;2023-03-21T07:53:39;98417.25;;;13.35;61.40
49297;BME280;35163;48.878;18.040;2023-03-21T07:56:07;98420.16;;;13.48;61.37
49297;BME280;35163;48.878;18.040;2023-03-21T07:58:34;98418.88;;;13.59;60.81
49297;BME280;35163;48.878;18.040;2023-03-21T08:01:01;98425.34;;;13.69;60.48
49297;BME280;35163;48.878;18.040;2023-03-21T08:03:30;98422.53;;;13.74;59.86
49297;BME280;35163;48.878;18.040;2023-03-21T08:05:59;98414.34;;;13.83;59.14
49297;BME280;35163;48.878;18.040;2023-03-21T08:08:26;98419.19;;;13.91;58.42
49297;BME280;35163;48.878;18.040;2023-03-21T08:10:53;98420.59;;;13.99;57.76
49297;BME280;35163;48.878;18.040;2023-03-21T08:13:20;98426.38;;;14.05;57.47
49297;BME280;35163;48.878;18.040;2023-03-21T08:15:46;98418.34;;;14.10;57.10
49297;BME280;35163;48.878;18.040;2023-03-21T08:18:13;98418.91;;;14.17;57.59
49297;BME280;35163;48.878;18.040;2023-03-21T08:20:39;98416.59;;;14.30;57.69
49297;BME280;35163;48.878;18.040;2023-03-21T08:23:06;98416.06;;;14.41;56.60
49297;BME280;35163;48.878;18.040;2023-03-21T08:25:33;98413.34;;;14.44;55.35
49297;BME280;35163;48.878;18.040;2023-03-21T08:27:59;98414.44;;;14.57;56.03
49297;BME280;35163;48.878;18.040;2023-03-21T08:30:27;98412.06;;;14.70;54.78
49297;BME280;35163;48.878;18.040;2023-03-21T08:32:55;98409.22;;;14.75;54.38
49297;BME280;35163;48.878;18.040;2023-03-21T08:35:27;98407.53;;;14.93;54.58
49297;BME280;35163;48.878;18.040;2023-03-21T08:37:55;98403.03;;;14.97;52.88
49297;BME280;35163;48.878;18.040;2023-03-21T08:40:22;98410.50;;;15.03;53.43
49297;BME280;35163;48.878;18.040;2023-03-21T08:42:49;98410.50;;;15.21;53.73
49297;BME280;35163;48.878;18.040;2023-03-21T08:45:16;98414.19;;;15.35;52.63
49297;BME280;35163;48.878;18.040;2023-03-21T08:47:44;98408.56;;;15.42;50.85
49297;BME280;35163;48.878;18.040;2023-03-21T08:50:19;98410.44;;;15.57;50.53
49297;BME280;35163;48.878;18.040;2023-03-21T08:52:47;98411.66;;;15.67;49.74
49297;BME280;35163;48.878;18.040;2023-03-21T08:55:15;98410.56;;;15.71;48.27
49297;BME280;35163;48.878;18.040;2023-03-21T08:57:44;98408.09;;;15.68;48.10
49297;BME280;35163;48.878;18.040;2023-03-21T09:00:14;98411.47;;;15.70;48.48
49297;BME280;35163;48.878;18.040;2023-03-21T09:02:44;98410.41;;;15.74;48.27
49297;BME280;35163;48.878;18.040;2023-03-21T09:05:12;98410.16;;;15.79;47.89
49297;BME280;35163;48.878;18.040;2023-03-21T09:07:39;98411.59;;;15.85;48.02
49297;BME280;35163;48.878;18.040;2023-03-21T09:10:09;98412.16;;;15.90;47.79
49297;BME280;35163;48.878;18.040;2023-03-21T09:12:51;98411.75;;;15.82;47.12
49297;BME280;35163;48.878;18.040;2023-03-21T09:15:20;98411.00;;;15.79;46.05
49297;BME280;35163;48.878;18.040;2023-03-21T09:17:50;98404.25;;;15.75;46.84
49297;BME280;35163;48.878;18.040;2023-03-21T09:20:19;98404.25;;;15.75;47.15
49297;BME280;35163;48.878;18.040;2023-03-21T09:22:49;98398.78;;;15.80;47.41
49297;BME280;35163;48.878;18.040;2023-03-21T09:25:17;98410.34;;;15.92;47.96
49297;BME280;35163;48.878;18.040;2023-03-21T09:27:45;98397.25;;;16.10;48.99
49297;BME280;35163;48.878;18.040;2023-03-21T09:30:16;98403.25;;;16.12;47.85
49297;BME280;35163;48.878;18.040;2023-03-21T09:32:43;98402.22;;;16.14;46.54
49297;BME280;35163;48.878;18.040;2023-03-21T09:35:18;98398.25;;;16.23;45.83
49297;BME280;35163;48.878;18.040;2023-03-21T09:37:46;98400.53;;;16.13;45.63
49297;BME280;35163;48.878;18.040;2023-03-21T09:40:26;98404.56;;;16.19;46.20
49297;BME280;35163;48.878;18.040;2023-03-21T09:43:19;98403.16;;;16.13;46.16
49297;BME280;35163;48.878;18.040;2023-03-21T09:45:58;98391.09;;;16.11;45.45
49297;BME280;35163;48.878;18.040;2023-03-21T09:48:57;98393.28;;;16.02;45.09
49297;BME280;35163;48.878;18.040;2023-03-21T09:51:29;98391.09;;;16.11;45.70
49297;BME280;35163;48.878;18.040;2023-03-21T09:53:59;98393.72;;;16.11;44.50
49297;BME280;35163;48.878;18.040;2023-03-21T09:56:29;98391.03;;;16.28;45.58
49297;BME280;35163;48.878;18.040;2023-03-21T09:58:56;98392.09;;;16.24;44.49
49297;BME280;35163;48.878;18.040;2023-03-21T10:01:27;98389.34;;;16.27;44.13
49297;BME280;35163;48.878;18.040;2023-03-21T10:03:57;98386.31;;;16.35;45.06
49297;BME280;35163;48.878;18.040;2023-03-21T10:06:26;98381.06;;;16.51;43.24
49297;BME280;35163;48.878;18.040;2023-03-21T10:09:11;98381.88;;;16.68;43.57
49297;BME280;35163;48.878;18.040;2023-03-21T10:11:46;98375.09;;;16.80;44.00
49297;BME280;35163;48.878;18.040;2023-03-21T10:14:21;98381.00;;;16.84;41.99
49297;BME280;35163;48.878;18.040;2023-03-21T10:16:55;98370.44;;;16.85;41.37
49297;BME280;35163;48.878;18.040;2023-03-21T10:19:23;98372.03;;;16.88;41.71
49297;BME280;35163;48.878;18.040;2023-03-21T10:21:51;98365.81;;;16.91;41.76
49297;BME280;35163;48.878;18.040;2023-03-21T10:24:28;98369.25;;;16.91;41.66
49297;BME280;35163;48.878;18.040;2023-03-21T10:26:56;98365.31;;;16.84;41.38
49297;BME280;35163;48.878;18.040;2023-03-21T10:29:27;98364.84;;;16.92;41.54
49297;BME280;35163;48.878;18.040;2023-03-21T10:31:56;98365.53;;;16.95;42.22
49297;BME280;35163;48.878;18.040;2023-03-21T10:34:41;98364.63;;;16.96;41.72
49297;BME280;35163;48.878;18.040;2023-03-21T10:37:10;98356.59;;;16.99;41.50
49297;BME280;35163;48.878;18.040;2023-03-21T10:39:40;98358.81;;;17.06;41.25
49297;BME280;35163;48.878;18.040;2023-03-21T10:42:28;98357.88;;;17.07;41.62
49297;BME280;35163;48.878;18.040;2023-03-21T10:44:56;98363.47;;;17.17;41.71
49297;BME280;35163;48.878;18.040;2023-03-21T10:47:32;98358.03;;;17.20;41.13
49297;BME280;35163;48.878;18.040;2023-03-21T10:50:10;98356.34;;;17.19;40.48
49297;BME280;35163;48.878;18.040;2023-03-21T10:52:48;98359.06;;;17.32;41.25
49297;BME280;35163;48.878;18.040;2023-03-21T10:57:52;98358.50;;;17.41;40.15
49297;BME280;35163;48.878;18.040;2023-03-21T11:00:24;98357.28;;;17.47;39.81
49297;BME280;35163;48.878;18.040;2023-03-21T11:02:53;98351.03;;;17.35;39.50
49297;BME280;35163;48.878;18.040;2023-03-21T11:05:26;98356.28;;;17.35;40.08
49297;BME280;35163;48.878;18.040;2023-03-21T11:08:04;98346.75;;;17.34;39.22
49297;BME280;35163;48.878;18.040;2023-03-21T11:10:34;98350.31;;;17.18;39.74
49297;BME280;35163;48.878;18.040;2023-03-21T11:13:12;98351.41;;;17.14;39.29
49297;BME280;35163;48.878;18.040;2023-03-21T11:15:56;98347.81;;;17.00;39.50
49297;BME280;35163;48.878;18.040;2023-03-21T11:18:26;98345.97;;;17.03;38.93
49297;BME280;35163;48.878;18.040;2023-03-21T11:21:01;98352.84;;;16.89;39.29
49297;BME280;35163;48.878;18.040;2023-03-21T11:23:29;98335.88;;;16.96;39.61
49297;BME280;35163;48.878;18.040;2023-03-21T11:26:01;98335.31;;;16.91;39.22
49297;BME280;35163;48.878;18.040;2023-03-21T11:28:40;98336.81;;;16.95;39.46
49297;BME280;35163;48.878;18.040;2023-03-21T11:31:07;98339.03;;;17.01;39.13
49297;BME280;35163;48.878;18.040;2023-03-21T11:33:41;98325.44;;;16.96;39.79
49297;BME280;35163;48.878;18.040;2023-03-21T11:38:42;98329.53;;;17.00;39.23
49297;BME280;35163;48.878;18.040;2023-03-21T11:41:21;98329.34;;;17.04;39.68
49297;BME280;35163;48.878;18.040;2023-03-21T11:43:52;98321.50;;;17.04;39.31
49297;BME280;35163;48.878;18.040;2023-03-21T11:46:28;98323.56;;;16.98;39.08
49297;BME280;35163;48.878;18.040;2023-03-21T11:48:56;98317.22;;;17.03;39.31
49297;BME280;35163;48.878;18.040;2023-03-21T11:51:47;98320.03;;;16.99;39.57
49297;BME280;35163;48.878;18.040;2023-03-21T12:00:12;98315.34;;;16.90;39.60
49297;BME280;35163;48.878;18.040;2023-03-21T12:03:08;98307.31;;;16.79;38.63
49297;BME280;35163;48.878;18.040;2023-03-21T12:06:02;98310.59;;;16.82;38.92
49297;BME280;35163;48.878;18.040;2023-03-21T12:11:48;98305.91;;;16.73;38.47
49297;BME280;35163;48.878;18.040;2023-03-21T12:25:37;98284.72;;;16.63;39.00
49297;BME280;35163;48.878;18.040;2023-03-21T12:30:54;98289.47;;;16.71;39.06
49297;BME280;35163;48.878;18.040;2023-03-21T12:33:44;98284.00;;;16.75;38.40
49297;BME280;35163;48.878;18.040;2023-03-21T12:39:27;98277.66;;;16.80;37.61
49297;BME280;35163;48.878;18.040;2023-03-21T12:42:05;98278.22;;;16.85;37.85
49297;BME280;35163;48.878;18.040;2023-03-21T12:44:38;98270.22;;;17.03;38.08
49297;BME280;35163;48.878;18.040;2023-03-21T12:47:16;98271.56;;;17.10;37.66
49297;BME280;35163;48.878;18.040;2023-03-21T12:50:12;98266.91;;;17.15;37.95
49297;BME280;35163;48.878;18.040;2023-03-21T12:52:43;98266.16;;;17.13;38.24
49297;BME280;35163;48.878;18.040;2023-03-21T12:55:20;98259.88;;;17.16;37.93
49297;BME280;35163;48.878;18.040;2023-03-21T12:57:51;98265.31;;;17.12;37.69
49297;BME280;35163;48.878;18.040;2023-03-21T13:03:03;98260.16;;;17.11;37.49
49297;BME280;35163;48.878;18.040;2023-03-21T13:05:54;98256.59;;;17.12;37.73
49297;BME280;35163;48.878;18.040;2023-03-21T13:08:25;98255.31;;;17.05;37.76
49297;BME280;35163;48.878;18.040;2023-03-21T13:10:54;98258.63;;;17.07;37.96
49297;BME280;35163;48.878;18.040;2023-03-21T13:16:34;98257.25;;;17.01;37.35
49297;BME280;35163;48.878;18.040;2023-03-21T13:24:56;98248.00;;;16.95;39.38
49297;BME280;35163;48.878;18.040;2023-03-21T13:32:29;98239.53;;;16.92;39.11
49297;BME280;35163;48.878;18.040;2023-03-21T13:35:19;98242.59;;;16.98;39.34
49297;BME280;35163;48.878;18.040;2023-03-21T13:40:27;98242.50;;;17.00;39.05
49297;BME280;35163;48.878;18.040;2023-03-21T13:43:00;98226.72;;;17.01;38.25
49297;BME280;35163;48.878;18.040;2023-03-21T13:45:33;98237.19;;;17.01;38.63
49297;BME280;35163;48.878;18.040;2023-03-21T13:48:28;98235.50;;;17.00;37.88
49297;BME280;35163;48.878;18.040;2023-03-21T13:51:04;98231.25;;;17.14;38.32
49297;BME280;35163;48.878;18.040;2023-03-21T13:53:35;98233.94;;;17.12;38.77
49297;BME280;35163;48.878;18.040;2023-03-21T13:58:40;98225.09;;;17.15;38.99
49297;BME280;35163;48.878;18.040;2023-03-21T14:01:41;98227.53;;;17.18;39.21
49297;BME280;35163;48.878;18.040;2023-03-21T14:04:15;98223.13;;;17.19;39.13
49297;BME280;35163;48.878;18.040;2023-03-21T14:06:55;98216.69;;;17.24;39.57
49297;BME280;35163;48.878;18.040;2023-03-21T14:09:35;98220.88;;;17.27;39.25
49297;BME280;35163;48.878;18.040;2023-03-21T14:12:07;98214.81;;;17.27;39.37
49297;BME280;35163;48.878;18.040;2023-03-21T14:14:40;98219.84;;;17.30;39.63
49297;BME280;35163;48.878;18.040;2023-03-21T14:17:22;98214.81;;;17.27;39.59
49297;BME280;35163;48.878;18.040;2023-03-21T14:19:53;98217.53;;;17.25;39.53
49297;BME280;35163;48.878;18.040;2023-03-21T14:22:21;98215.75;;;17.26;39.77
49297;BME280;35163;48.878;18.040;2023-03-21T14:27:23;98207.19;;;17.23;40.06
49297;BME280;35163;48.878;18.040;2023-03-21T14:29:51;98204.75;;;17.20;40.11
49297;BME280;35163;48.878;18.040;2023-03-21T14:32:25;98203.16;;;17.18;40.07
49297;BME280;35163;48.878;18.040;2023-03-21T14:34:53;98205.69;;;17.19;40.08
49297;BME280;35163;48.878;18.040;2023-03-21T14:37:37;98204.66;;;17.22;40.13
49297;BME280;35163;48.878;18.040;2023-03-21T14:40:16;98203.25;;;17.16;39.92
49297;BME280;35163;48.878;18.040;2023-03-21T14:42:46;98204.09;;;17.17;39.49
49297;BME280;35163;48.878;18.040;2023-03-21T14:45:19;98210.16;;;17.17;39.53